Cordova, New Mexico
Current Conditions -  °F | °C
As of 7:35 AM on Monday 22 Dec 2014 (Local Time) from KLAM Reporting Station
Clear Clear  
Wind Chill: 37°   Ceiling: Unl
Heat Index: 37°   Visibility: 10mi
Dew Point: 29°   Wind: 3mph
Humidity: 72%   Direction: 140°SE
Pressure: 29.85"   Gusts: NA
Location:  36.01°N, 105.86°W
Report Text: KLAM 221435Z AUTO 14003KT 10SM CLR 03/M02 A2985 RMK AO2 T00281018
Loading
Personal Weather Stations






























Interactive Weather Map New forecast layout! Learn more

10-Day Weather Forecast

Advertisements
Track Severe Weather on mobile